Time;durP1;ratioP1;P1;durP2;ratioP2;P2;SDS_P1;SDS_P2;PMS_P1;PMS_P2;Temp;Humidity;BMP_temperature;BMP_pressure;BME280_temperature;BME280_humidity;BME280_pressure;Samples;Min_cycle;Max_cycle;Signal;HPM_P1;HPM_P2
2022/11/08 00:02:17;;;;;;;33.97;22.80;;;;;;;12.68;100.00;94936.34;5014458;28;20663;-58
2022/11/08 00:04:43;;;;;;;38.93;22.53;;;;;;;12.71;100.00;94930.16;5014016;28;20253;-63
2022/11/08 00:15:22;;;;;;;29.67;21.17;;;;;;;12.42;100.00;94920.00;5014371;28;20233;-59
2022/11/08 00:17:47;;;;;;;35.50;22.70;;;;;;;12.60;100.00;94928.56;5014039;28;20183;-62
2022/11/08 00:20:13;;;;;;;36.50;23.43;;;;;;;12.63;100.00;94928.28;5014140;28;20211;-62
2022/11/08 00:22:38;;;;;;;35.53;23.33;;;;;;;12.64;100.00;94919.72;5014136;28;20270;-58
2022/11/08 00:25:04;;;;;;;34.03;22.37;;;;;;;12.68;100.00;94914.16;5014039;28;20203;-63
2022/11/08 00:27:30;;;;;;;37.57;22.23;;;;;;;12.73;100.00;94912.97;5013496;28;20179;-64
2022/11/08 00:29:55;;;;;;;40.17;22.67;;;;;;;12.76;100.00;94939.03;5013711;28;20268;-60
2022/11/08 00:32:23;;;;;;;30.73;21.30;;;;;;;12.71;100.00;94933.50;5012548;28;20209;-63
2022/11/08 00:34:48;;;;;;;35.70;23.20;;;;;;;12.62;100.00;94909.63;5013538;28;20206;-61
2022/11/08 00:37:15;;;;;;;38.80;22.70;;;;;;;12.46;100.00;94900.94;5013485;28;20277;-61
2022/11/08 00:39:41;;;;;;;37.07;24.20;;;;;;;12.31;100.00;94894.63;5013870;28;20209;-59
2022/11/08 00:42:07;;;;;;;34.57;23.50;;;;;;;12.09;100.00;94890.59;5013574;28;20185;-62
2022/11/08 00:44:33;;;;;;;32.90;22.70;;;;;;;12.04;100.00;94885.06;5012316;28;20215;-59
2022/11/08 00:46:59;;;;;;;38.70;24.27;;;;;;;11.94;100.00;94897.00;5013530;28;20175;-59
2022/11/08 00:49:24;;;;;;;38.27;23.83;;;;;;;11.98;100.00;94888.16;5013478;28;20689;-60
2022/11/08 00:51:50;;;;;;;38.70;24.17;;;;;;;11.90;100.00;94899.97;5013580;28;20211;-59
2022/11/08 00:54:18;;;;;;;35.47;23.57;;;;;;;11.84;100.00;94890.28;5013417;28;20261;-59
2022/11/08 00:56:44;;;;;;;40.50;24.50;;;;;;;11.85;100.00;94894.44;5012116;28;20190;-60
2022/11/08 00:59:11;;;;;;;36.87;23.57;;;;;;;11.74;100.00;94891.06;5013404;28;20215;-60
2022/11/08 01:01:37;;;;;;;35.70;24.43;;;;;;;11.73;100.00;94898.84;5013143;28;20249;-60
2022/11/08 01:04:03;;;;;;;38.30;24.63;;;;;;;11.79;100.00;94900.88;5013272;28;20207;-58
2022/11/08 01:06:30;;;;;;;36.87;24.10;;;;;;;11.96;100.00;94910.41;5013034;28;20183;-59
2022/11/08 01:08:56;;;;;;;35.93;23.70;;;;;;;11.75;100.00;94905.44;5013133;28;20230;-62
2022/11/08 01:11:23;;;;;;;37.30;24.73;;;;;;;11.80;100.00;94910.09;5013046;28;20183;-62
2022/11/08 01:13:49;;;;;;;39.57;24.50;;;;;;;11.93;100.00;94912.41;5013266;28;20285;-61
2022/11/08 01:16:18;;;;;;;37.60;24.60;;;;;;;12.04;100.00;94904.69;5011771;28;20182;-58
2022/11/08 01:18:44;;;;;;;37.33;23.63;;;;;;;12.13;100.00;94914.06;5011659;28;20186;-61
2022/11/08 01:21:10;;;;;;;40.70;23.87;;;;;;;12.14;100.00;94913.13;5032793;23;20387;-61
2022/11/08 01:23:36;;;;;;;36.57;22.77;;;;;;;12.11;100.00;94910.84;5012923;28;20191;-63
2022/11/08 01:26:05;;;;;;;38.63;23.67;;;;;;;12.02;100.00;94909.09;5012705;28;20179;-61
2022/11/08 01:28:34;;;;;;;39.87;24.13;;;;;;;11.87;100.00;94908.66;5011988;28;20209;-61
2022/11/08 01:31:22;;;;;;;43.50;25.13;;;;;;;11.67;100.00;94900.19;5012814;28;20265;-61
2022/11/08 01:33:48;;;;;;;49.07;26.07;;;;;;;11.62;100.00;94898.91;5011529;28;20183;-62
2022/11/08 01:36:16;;;;;;;40.20;26.10;;;;;;;11.59;100.00;94897.44;5012630;28;20245;-63
2022/11/08 01:38:42;;;;;;;44.80;26.13;;;;;;;11.58;100.00;94905.19;5012499;28;20191;-62
2022/11/08 01:41:12;;;;;;;52.77;26.47;;;;;;;11.50;100.00;94899.94;5012702;28;20575;-62
2022/11/08 01:43:45;;;;;;;43.60;27.40;;;;;;;11.54;100.00;94902.09;5012515;28;20563;-61
2022/11/08 01:46:28;;;;;;;40.53;25.03;;;;;;;11.82;100.00;94911.59;5012819;28;20179;-58
2022/11/08 01:48:57;;;;;;;35.73;25.23;;;;;;;11.92;100.00;94908.28;5012738;28;20303;-63
2022/11/08 01:51:27;;;;;;;37.50;26.00;;;;;;;11.91;100.00;94921.94;5012503;28;20750;-58
2022/11/08 01:53:53;;;;;;;41.03;27.07;;;;;;;12.01;100.00;94918.47;5012391;28;20517;-59
2022/11/08 01:56:19;;;;;;;46.00;25.83;;;;;;;12.00;100.00;94916.84;5011418;28;20198;-63
2022/11/08 01:58:48;;;;;;;40.50;26.00;;;;;;;12.04;100.00;94914.88;5012518;28;20641;-62
2022/11/08 02:01:13;;;;;;;40.33;26.40;;;;;;;12.04;100.00;94914.88;5012389;28;20214;-60
2022/11/08 02:03:40;;;;;;;43.17;26.40;;;;;;;12.22;100.00;94928.56;5012454;28;20233;-59
2022/11/08 02:06:07;;;;;;;42.17;25.17;;;;;;;12.14;100.00;94930.97;5012152;28;20225;-60
2022/11/08 02:08:38;;;;;;;47.57;28.60;;;;;;;11.66;100.00;94897.75;5010725;28;20289;-57
2022/11/08 02:11:05;;;;;;;43.37;26.70;;;;;;;11.73;100.00;94902.22;5011896;28;20688;-64
2022/11/08 02:13:33;;;;;;;40.93;26.37;;;;;;;11.69;100.00;94905.94;5012060;28;20179;-61
2022/11/08 02:15:58;;;;;;;48.73;28.90;;;;;;;11.70;100.00;94912.63;5011796;28;20218;-61
2022/11/08 02:18:27;;;;;;;47.17;28.73;;;;;;;11.77;100.00;94912.94;5011920;28;20187;-57
2022/11/08 02:21:09;;;;;;;42.50;26.90;;;;;;;11.71;100.00;94909.16;5011991;28;20249;-60
2022/11/08 02:23:46;;;;;;;43.70;27.17;;;;;;;11.71;100.00;94906.63;5012411;28;20187;-58
2022/11/08 02:26:13;;;;;;;47.70;27.63;;;;;;;11.68;100.00;94911.97;5012051;28;20273;-60
2022/11/08 02:28:40;;;;;;;46.10;27.90;;;;;;;11.58;100.00;94911.09;5011865;28;20621;-62
2022/11/08 02:31:11;;;;;;;40.53;26.80;;;;;;;11.68;100.00;94922.16;5010611;28;20187;-63
2022/11/08 02:33:37;;;;;;;45.43;28.37;;;;;;;11.70;100.00;94915.19;5011778;28;20201;-63
2022/11/08 02:36:04;;;;;;;42.20;28.43;;;;;;;11.68;100.00;94913.69;4994201;28;20585;-60
2022/11/08 02:38:31;;;;;;;39.57;26.93;;;;;;;11.68;100.00;94929.78;5011701;28;20265;-58
2022/11/08 02:40:57;;;;;;;46.67;28.23;;;;;;;11.76;100.00;94935.03;5011785;28;20214;-61
2022/11/08 02:43:24;;;;;;;44.40;28.10;;;;;;;11.77;100.00;94929.03;5011834;28;20671;-60
2022/11/08 02:45:49;;;;;;;47.47;27.10;;;;;;;11.63;100.00;94915.81;5010541;28;20272;-59
2022/11/08 02:48:15;;;;;;;45.10;28.47;;;;;;;11.72;100.00;94915.88;5011671;28;20183;-63
2022/11/08 02:50:41;;;;;;;40.97;27.20;;;;;;;11.90;100.00;94922.88;5033959;23;20222;-62
2022/11/08 02:53:06;;;;;;;42.37;27.03;;;;;;;11.90;100.00;94930.53;5031346;28;20603;-60
2022/11/08 02:55:33;;;;;;;46.63;26.97;;;;;;;11.87;100.00;94923.13;5031197;28;20221;-59
2022/11/08 02:58:00;;;;;;;39.20;26.90;;;;;;;12.04;100.00;94948.78;5031353;28;20208;-61
2022/11/08 03:00:26;;;;;;;41.37;26.30;;;;;;;12.15;100.00;94952.97;5027484;22;20217;-63
2022/11/08 03:02:55;;;;;;;37.90;25.27;;;;;;;12.11;100.00;94942.22;5011518;28;20187;-59
2022/11/08 03:05:21;;;;;;;49.50;27.80;;;;;;;11.73;100.00;94904.75;5009984;28;20214;-58
2022/11/08 03:07:47;;;;;;;37.10;25.23;;;;;;;11.75;100.00;94905.44;5036133;23;20275;-60
2022/11/08 03:10:13;;;;;;;43.77;26.27;;;;;;;11.69;100.00;94905.94;5031002;28;20260;-60
2022/11/08 03:12:40;;;;;;;40.07;27.20;;;;;;;11.99;100.00;94930.53;5030965;28;20648;-59
2022/11/08 03:15:07;;;;;;;43.93;25.93;;;;;;;12.09;100.00;94948.38;5030999;28;20240;-62
2022/11/08 03:17:33;;;;;;;42.63;26.77;;;;;;;12.10;100.00;94939.81;5013214;28;20202;-62
2022/11/08 03:19:59;;;;;;;36.37;26.40;;;;;;;12.30;100.00;94964.41;5030918;28;20202;-62
2022/11/08 03:22:24;;;;;;;37.83;25.67;;;;;;;12.39;100.00;94972.03;5031009;28;20201;-63
2022/11/08 03:24:50;;;;;;;40.47;25.47;;;;;;;12.26;100.00;94940.09;5030919;28;20264;-58
2022/11/08 03:27:17;;;;;;;43.20;27.27;;;;;;;12.29;100.00;94950.03;5031015;28;20191;-60
2022/11/08 03:29:46;;;;;;;46.13;26.17;;;;;;;12.33;100.00;94946.28;5029525;28;20214;-58
2022/11/08 03:32:12;;;;;;;40.57;25.10;;;;;;;12.42;100.00;94953.91;5030784;28;20240;-59
2022/11/08 03:34:37;;;;;;;38.63;24.30;;;;;;;12.50;100.00;94969.34;5030703;28;20217;-64
2022/11/08 03:37:09;;;;;;;40.83;25.53;;;;;;;12.38;100.00;94959.44;5031121;28;20631;-63
2022/11/08 03:39:34;;;;;;;42.27;26.20;;;;;;;12.30;100.00;94944.78;5030636;28;20217;-63
2022/11/08 03:42:02;;;;;;;39.63;26.23;;;;;;;12.38;100.00;94941.59;5013107;28;20192;-59
2022/11/08 03:44:31;;;;;;;42.47;25.53;;;;;;;12.45;100.00;94963.88;5030705;28;20218;-61
2022/11/08 03:46:58;;;;;;;39.47;26.67;;;;;;;12.37;100.00;94945.06;5030765;28;20702;-63
2022/11/08 03:49:24;;;;;;;41.13;25.90;;;;;;;12.36;100.00;94935.81;5030414;28;20688;-60
2022/11/08 03:51:49;;;;;;;41.77;27.10;;;;;;;12.39;100.00;94938.09;5030810;28;20256;-62
2022/11/08 03:54:14;;;;;;;40.43;26.60;;;;;;;12.44;100.00;94928.31;5012798;28;20206;-63
2022/11/08 03:56:40;;;;;;;38.10;25.63;;;;;;;12.53;100.00;94942.78;5029167;28;20194;-61
2022/11/08 03:59:06;;;;;;;44.27;26.93;;;;;;;12.47;100.00;94928.03;5030581;28;20213;-59
2022/11/08 04:01:31;;;;;;;42.17;27.13;;;;;;;12.48;100.00;94927.88;5013208;28;20217;-60
2022/11/08 04:03:57;;;;;;;42.90;27.83;;;;;;;12.53;100.00;94935.94;5030423;28;20347;-62
2022/11/08 04:06:22;;;;;;;47.07;27.77;;;;;;;12.57;100.00;94941.56;5030419;28;20194;-59
2022/11/08 04:08:48;;;;;;;46.17;26.90;;;;;;;12.56;100.00;94942.53;5012459;28;20218;-58
2022/11/08 04:16:41;;;;;;;46.70;28.03;;;;;;;12.67;100.00;94932.19;5030550;28;20263;-58
2022/11/08 04:21:53;;;;;;;48.70;27.80;;;;;;;12.49;100.00;94938.88;5030941;28;20628;-58
2022/11/08 04:24:19;;;;;;;40.57;27.07;;;;;;;12.30;100.00;94926.16;5030211;28;20622;-63
2022/11/08 04:26:45;;;;;;;44.00;26.90;;;;;;;12.36;100.00;94915.41;5030357;28;20233;-59
2022/11/08 04:29:12;;;;;;;42.17;26.70;;;;;;;12.32;100.00;94916.63;5029820;28;20237;-60
2022/11/08 04:31:38;;;;;;;43.80;28.00;;;;;;;12.27;100.00;94904.28;5030536;28;20195;-64
2022/11/08 04:34:10;;;;;;;49.30;29.73;;;;;;;12.14;100.00;94898.63;5030017;28;20202;-60
2022/11/08 04:36:35;;;;;;;45.40;27.40;;;;;;;12.47;100.00;94933.13;5030174;28;20187;-61
2022/11/08 04:39:01;;;;;;;43.97;27.00;;;;;;;12.28;100.00;94902.53;5030073;28;20226;-61
2022/11/08 04:41:27;;;;;;;43.27;27.40;;;;;;;12.31;100.00;94917.56;5033049;28;20186;-63
2022/11/08 04:43:54;;;;;;;44.33;27.63;;;;;;;12.18;100.00;94911.94;5033189;28;20188;-61
2022/11/08 04:46:22;;;;;;;42.73;27.17;;;;;;;11.98;100.00;94893.25;5033349;28;20194;-60
2022/11/08 04:48:55;;;;;;;40.87;27.47;;;;;;;12.13;100.00;94903.84;5015189;28;20214;-59
2022/11/08 04:51:25;;;;;;;42.57;28.43;;;;;;;12.23;100.00;94914.88;5033577;28;20671;-61
2022/11/08 04:53:51;;;;;;;41.30;27.50;;;;;;;12.28;100.00;94920.38;5033036;28;20301;-59
2022/11/08 04:56:18;;;;;;;42.40;26.87;;;;;;;12.29;100.00;94922.78;5033235;28;20187;-58
2022/11/08 04:58:49;;;;;;;43.73;26.63;;;;;;;12.31;100.00;94920.91;5033134;28;20293;-62
2022/11/08 05:01:17;;;;;;;49.27;27.90;;;;;;;12.20;100.00;94917.69;5032954;28;20190;-58
2022/11/08 05:03:45;;;;;;;42.40;27.80;;;;;;;12.19;100.00;94916.88;5032718;28;20664;-58
2022/11/08 05:06:17;;;;;;;41.13;28.37;;;;;;;12.03;100.00;94924.25;5032797;28;20657;-59
2022/11/08 05:08:43;;;;;;;45.50;27.60;;;;;;;11.98;100.00;94928.91;5032648;28;20356;-58
2022/11/08 05:11:12;;;;;;;46.43;27.80;;;;;;;12.15;100.00;94928.28;5033103;28;20198;-59
2022/11/08 05:13:38;;;;;;;45.10;28.80;;;;;;;12.29;100.00;94930.44;5032648;28;20192;-64
2022/11/08 05:16:07;;;;;;;42.10;26.40;;;;;;;12.34;100.00;94932.59;5033063;28;20220;-62
2022/11/08 05:18:33;;;;;;;42.07;27.27;;;;;;;12.43;100.00;94937.69;5014890;28;20270;-63
2022/11/08 05:23:45;;;;;;;43.00;26.47;;;;;;;12.09;100.00;94939.00;5033000;28;20588;-59
2022/11/08 05:26:12;;;;;;;40.73;26.60;;;;;;;12.12;100.00;94937.94;5032645;28;20259;-60
2022/11/08 05:28:39;;;;;;;44.00;27.23;;;;;;;12.51;100.00;94947.22;5014887;28;20649;-63
2022/11/08 05:31:05;;;;;;;39.53;25.47;;;;;;;12.55;100.00;94957.03;5015282;28;20271;-63
2022/11/08 05:33:30;;;;;;;46.00;29.70;;;;;;;12.23;100.00;94925.06;5032555;28;20716;-61
2022/11/08 05:36:00;;;;;;;43.20;27.17;;;;;;;12.08;100.00;94937.38;5032330;28;20226;-59
2022/11/08 05:38:25;;;;;;;49.47;28.13;;;;;;;12.07;100.00;94935.78;5032218;28;20198;-61
2022/11/08 05:40:51;;;;;;;40.63;26.43;;;;;;;12.34;100.00;94943.56;5032347;28;20213;-59
2022/11/08 05:43:16;;;;;;;39.63;26.30;;;;;;;12.59;100.00;94957.56;5032465;28;20186;-59
2022/11/08 05:45:44;;;;;;;39.90;26.30;;;;;;;12.58;100.00;94955.94;5032196;28;20210;-60
2022/11/08 05:48:09;;;;;;;39.47;25.63;;;;;;;12.48;100.00;94940.63;5032180;28;20205;-59
2022/11/08 05:50:35;;;;;;;44.07;26.27;;;;;;;12.66;100.00;94954.31;5032230;28;20229;-59
2022/11/08 05:53:01;;;;;;;39.90;27.23;;;;;;;12.84;100.00;94967.22;5031363;28;20182;-60
2022/11/08 05:55:26;;;;;;;44.20;26.07;;;;;;;12.87;100.00;94968.66;5032096;28;20198;-59
2022/11/08 05:57:52;;;;;;;38.47;25.47;;;;;;;12.61;100.00;94940.38;5032260;28;20212;-62
2022/11/08 06:00:18;;;;;;;43.43;27.80;;;;;;;12.28;100.00;94935.69;5032106;28;20252;-61
2022/11/08 06:02:44;;;;;;;50.70;28.50;;;;;;;12.24;100.00;94949.63;5031967;28;20201;-61
2022/11/08 06:05:10;;;;;;;40.07;25.43;;;;;;;12.47;100.00;94946.69;5032073;28;20202;-62
2022/11/08 06:07:36;;;;;;;39.37;25.23;;;;;;;12.66;100.00;94964.53;5031758;28;20268;-61
2022/11/08 06:10:02;;;;;;;37.60;25.40;;;;;;;12.70;100.00;94962.53;5031740;28;20218;-63
2022/11/08 06:12:28;;;;;;;43.03;28.03;;;;;;;12.64;100.00;94960.50;5031801;28;20187;-61
2022/11/08 06:14:53;;;;;;;42.80;27.37;;;;;;;12.56;100.00;94960.38;5029527;22;20230;-61
2022/11/08 06:17:19;;;;;;;41.07;26.97;;;;;;;12.53;100.00;94964.00;5012006;28;20195;-63
2022/11/08 06:19:44;;;;;;;50.10;28.70;;;;;;;12.40;100.00;94965.22;5026808;23;20298;-62
2022/11/08 06:22:10;;;;;;;48.30;28.80;;;;;;;12.57;100.00;94978.09;5031798;28;20190;-60
2022/11/08 06:24:35;;;;;;;41.33;28.13;;;;;;;12.74;100.00;94971.53;5032012;28;20688;-60
2022/11/08 06:27:01;;;;;;;43.77;28.00;;;;;;;12.59;100.00;94968.56;5031906;28;20652;-60
2022/11/08 06:29:26;;;;;;;61.43;30.87;;;;;;;12.55;100.00;94984.25;5031893;28;20253;-63
2022/11/08 06:31:52;;;;;;;41.13;28.57;;;;;;;12.63;100.00;94986.94;5031821;28;20193;-60
2022/11/08 06:34:17;;;;;;;51.17;27.87;;;;;;;12.65;100.00;95001.19;5031742;28;20301;-63
2022/11/08 06:36:43;;;;;;;45.20;27.53;;;;;;;12.47;100.00;94991.78;5031603;28;20663;-60
2022/11/08 06:39:08;;;;;;;44.87;26.60;;;;;;;12.50;100.00;94996.63;5031468;28;20209;-58
2022/11/08 06:41:34;;;;;;;46.97;28.00;;;;;;;12.58;100.00;94994.22;5031413;28;20201;-58
2022/11/08 06:43:59;;;;;;;43.40;26.90;;;;;;;12.63;100.00;94997.16;5031397;28;20285;-59
2022/11/08 06:46:25;;;;;;;43.47;26.80;;;;;;;12.42;100.00;94992.16;5031451;28;20193;-59
2022/11/08 06:48:50;;;;;;;39.30;26.20;;;;;;;12.45;100.00;95004.66;5031242;28;20245;-59
2022/11/08 06:51:16;;;;;;;41.37;26.53;;;;;;;12.47;100.00;94999.41;5031404;28;20605;-60
2022/11/08 06:53:42;;;;;;;42.55;26.20;;;;;;;12.48;100.00;94996.72;5031253;28;20712;-60
2022/11/08 06:56:08;;;;;;;43.17;26.30;;;;;;;12.62;100.00;95005.75;5029950;28;20204;-60
2022/11/08 06:58:34;;;;;;;44.27;26.47;;;;;;;12.70;100.00;95008.44;5054323;22;21409;-59
2022/11/08 07:01:09;;;;;;;39.23;25.33;;;;;;;12.61;100.00;94999.03;5011377;28;20195;-59
2022/11/08 07:03:34;;;;;;;38.70;26.00;;;;;;;12.69;100.00;95017.03;5011440;28;20194;-58
2022/11/08 07:06:01;;;;;;;41.93;25.50;;;;;;;12.60;100.00;95013.50;5011492;28;20202;-59
2022/11/08 07:08:27;;;;;;;42.23;26.93;;;;;;;12.49;100.00;95003.47;5009861;28;20197;-59
2022/11/08 07:10:53;;;;;;;42.13;26.10;;;;;;;12.47;100.00;95005.34;5011220;28;20216;-58
2022/11/08 07:13:19;;;;;;;37.27;24.83;;;;;;;12.35;100.00;95003.84;5011506;28;20608;-62
2022/11/08 07:15:46;;;;;;;40.63;25.73;;;;;;;12.21;100.00;94995.75;5011220;28;20210;-63
2022/11/08 07:18:14;;;;;;;40.87;25.20;;;;;;;12.21;100.00;95001.66;5011267;28;20205;-63
2022/11/08 07:20:40;;;;;;;37.67;23.87;;;;;;;12.10;100.00;95006.06;5011035;28;20351;-63
2022/11/08 07:23:06;;;;;;;37.57;26.17;;;;;;;11.96;100.00;94994.47;5011406;28;20198;-63
2022/11/08 07:25:32;;;;;;;37.70;24.40;;;;;;;12.05;100.00;95008.19;5009788;28;20210;-63
2022/11/08 07:28:06;;;;;;;40.80;25.47;;;;;;;12.20;100.00;95006.91;5011101;28;20191;-63
2022/11/08 07:30:34;;;;;;;41.10;24.87;;;;;;;12.20;100.00;95010.22;5010902;28;20300;-64
2022/11/08 07:32:59;;;;;;;38.93;24.63;;;;;;;12.21;100.00;95009.31;5011052;28;20199;-63
2022/11/08 07:35:26;;;;;;;36.37;23.57;;;;;;;12.20;100.00;95012.78;5010972;28;20325;-64
2022/11/08 07:37:53;;;;;;;36.13;24.60;;;;;;;12.29;100.00;95014.56;5011090;28;20202;-63
2022/11/08 07:40:18;;;;;;;43.97;25.37;;;;;;;12.50;100.00;95014.47;5011003;28;20222;-63
2022/11/08 07:42:44;;;;;;;45.27;25.53;;;;;;;12.49;100.00;95015.38;5010910;28;20187;-63
2022/11/08 07:45:10;;;;;;;40.63;25.17;;;;;;;12.66;100.00;95020.63;5009472;28;20746;-63
2022/11/08 07:47:36;;;;;;;38.77;24.43;;;;;;;12.62;100.00;95021.06;5010734;28;20194;-63
2022/11/08 07:50:02;;;;;;;38.23;23.93;;;;;;;12.60;100.00;95021.16;5010626;28;20292;-64
2022/11/08 07:52:27;;;;;;;33.67;23.60;;;;;;;12.57;100.00;95020.63;5010566;28;20190;-64
2022/11/08 07:54:52;;;;;;;42.00;25.30;;;;;;;12.84;100.00;95028.44;5010834;28;20213;-64
2022/11/08 07:57:18;;;;;;;39.97;26.50;;;;;;;12.95;100.00;95035.19;5009424;28;20735;-64
2022/11/08 07:59:44;;;;;;;35.57;23.60;;;;;;;12.98;100.00;95019.56;5010586;28;20678;-63
2022/11/08 08:02:13;;;;;;;36.20;24.37;;;;;;;13.02;100.00;95020.91;5010633;28;20634;-62
2022/11/08 08:04:38;;;;;;;40.37;24.70;;;;;;;13.00;100.00;95030.47;5010494;28;20215;-63
2022/11/08 08:07:04;;;;;;;34.90;23.67;;;;;;;13.05;100.00;95024.03;5010470;28;20185;-63
2022/11/08 08:09:30;;;;;;;42.03;24.53;;;;;;;13.12;100.00;95024.28;5010226;28;20222;-65
2022/11/08 08:11:55;;;;;;;35.33;23.67;;;;;;;13.14;100.00;95033.44;5010485;28;20211;-64
2022/11/08 08:14:21;;;;;;;40.80;23.63;;;;;;;13.29;100.00;95038.94;5009372;28;20705;-65
2022/11/08 08:16:46;;;;;;;36.60;25.03;;;;;;;13.18;100.00;95039.88;5013924;28;20266;-63
2022/11/08 08:19:12;;;;;;;34.57;23.47;;;;;;;13.16;100.00;95038.41;5013977;28;20205;-64
2022/11/08 08:21:38;;;;;;;40.63;24.43;;;;;;;13.03;100.00;95035.31;5013832;28;20278;-62
2022/11/08 08:24:04;;;;;;;33.60;23.73;;;;;;;13.25;100.00;95043.50;5013459;28;20647;-64
2022/11/08 08:26:29;;;;;;;37.80;25.10;;;;;;;13.27;100.00;95033.94;5013834;28;20238;-63
2022/11/08 08:28:55;;;;;;;35.73;23.30;;;;;;;13.19;100.00;95033.81;5013657;28;20218;-63
2022/11/08 08:31:20;;;;;;;42.10;25.50;;;;;;;13.24;100.00;95024.03;5014303;28;20191;-63
2022/11/08 08:33:46;;;;;;;39.97;25.95;;;;;;;13.32;100.00;95025.88;5013310;28;20636;-64
2022/11/08 08:36:11;;;;;;;42.57;27.27;;;;;;;13.24;100.00;95026.56;5013647;28;20191;-64
2022/11/08 08:38:37;;;;;;;40.73;24.97;;;;;;;13.41;100.00;95038.63;5011945;28;20201;-63
2022/11/08 08:41:02;;;;;;;44.07;25.20;;;;;;;13.21;100.00;95026.81;4995876;28;20662;-63
2022/11/08 08:43:31;;;;;;;39.10;25.93;;;;;;;13.24;100.00;95024.03;5013541;28;20574;-62
2022/11/08 08:46:01;;;;;;;38.87;25.07;;;;;;;13.31;100.00;95027.63;5013316;28;20211;-63
2022/11/08 08:48:27;;;;;;;36.80;25.17;;;;;;;13.21;100.00;95031.94;5013533;28;20248;-63
2022/11/08 08:50:52;;;;;;;37.70;24.30;;;;;;;13.10;100.00;95034.66;5013135;28;20638;-63
2022/11/08 08:53:18;;;;;;;38.97;25.60;;;;;;;13.01;100.00;95032.88;5012008;28;20202;-64
2022/11/08 08:55:44;;;;;;;36.17;24.10;;;;;;;13.09;100.00;95038.13;5011848;28;20708;-63
2022/11/08 08:58:10;;;;;;;37.47;25.13;;;;;;;13.07;100.00;95047.66;5011963;28;20635;-62
2022/11/08 09:00:35;;;;;;;41.13;25.27;;;;;;;13.05;100.00;95033.44;5013185;28;20206;-63
2022/11/08 09:03:07;;;;;;;38.10;25.53;;;;;;;13.11;100.00;95027.81;5012064;28;20268;-64
2022/11/08 09:05:33;;;;;;;47.27;25.93;;;;;;;13.05;100.00;95036.78;5028573;23;20251;-63
2022/11/08 09:07:59;;;;;;;35.40;25.17;;;;;;;13.00;100.00;95023.63;5032754;28;20719;-62
2022/11/08 09:10:26;;;;;;;39.70;23.83;;;;;;;13.02;100.00;95028.56;5032464;28;20214;-63
2022/11/08 09:12:51;;;;;;;35.57;23.70;;;;;;;13.04;100.00;95034.38;5032752;28;20190;-62
2022/11/08 09:15:17;;;;;;;37.20;23.60;;;;;;;12.89;100.00;95017.84;5032616;28;20237;-62
2022/11/08 09:17:43;;;;;;;35.20;22.27;;;;;;;13.00;100.00;95018.50;5032614;28;20198;-64
2022/11/08 09:20:09;;;;;;;33.63;21.93;;;;;;;13.30;100.00;95031.13;5033073;28;20221;-63
2022/11/08 09:22:36;;;;;;;41.77;23.40;;;;;;;13.38;100.00;95027.88;5032790;28;20190;-64
2022/11/08 09:25:02;;;;;;;37.03;24.23;;;;;;;13.42;100.00;95037.69;5032664;28;20211;-64
2022/11/08 09:27:29;;;;;;;33.50;23.27;;;;;;;13.64;100.00;95048.53;5031742;28;20265;-64
2022/11/08 09:29:55;;;;;;;38.10;23.10;;;;;;;13.62;100.00;95058.06;5032354;28;20707;-63
2022/11/08 09:32:21;;;;;;;34.60;22.00;;;;;;;13.70;100.00;95053.06;5014581;28;20649;-63
2022/11/08 09:34:46;;;;;;;32.77;22.73;;;;;;;13.99;100.00;95076.81;5032483;28;20221;-64
2022/11/08 09:37:13;;;;;;;38.22;22.70;;;;;;;14.08;100.00;95052.94;5032200;28;20656;-65
2022/11/08 09:39:38;;;;;;;32.23;20.97;;;;;;;14.15;100.00;95069.34;5032211;28;20224;-63
2022/11/08 09:42:34;;;;;;;32.80;21.25;;;;;;;13.68;100.00;95054.97;5013908;28;20193;-61
2022/11/08 09:45:20;;;;;;;30.17;20.33;;;;;;;13.60;100.00;95042.88;5029258;22;20237;-59
2022/11/08 09:47:50;;;;;;;30.38;19.48;;;;;;;13.59;100.00;95035.38;5012634;28;20191;-60
2022/11/08 09:50:27;;;;;;;35.13;21.40;;;;;;;13.41;100.00;95015.63;5012482;28;20607;-62
2022/11/08 09:53:04;;;;;;;30.33;20.90;;;;;;;13.39;100.00;95012.41;5012537;28;20269;-61
2022/11/08 09:55:36;;;;;;;31.33;20.93;;;;;;;13.60;100.00;95052.28;5012912;28;20579;-61
2022/11/08 09:58:11;;;;;;;30.57;20.23;;;;;;;13.65;100.00;95050.97;5012589;28;20301;-62
2022/11/08 10:00:39;;;;;;;31.67;20.23;;;;;;;13.71;100.00;95057.25;5012448;28;20697;-62
2022/11/08 10:03:04;;;;;;;28.27;19.83;;;;;;;13.88;100.00;95057.31;5012185;28;20646;-64
2022/11/08 10:05:40;;;;;;;31.65;19.33;;;;;;;13.81;100.00;95075.91;5012407;28;20210;-64
2022/11/08 10:08:10;;;;;;;33.65;20.98;;;;;;;13.84;100.00;95070.50;5012273;28;20214;-62
2022/11/08 10:11:08;;;;;;;30.40;19.60;;;;;;;13.75;100.00;95056.84;5010511;28;20226;-62
2022/11/08 10:13:55;;;;;;;29.13;19.97;;;;;;;13.86;100.00;95048.19;5012114;28;20210;-63
2022/11/08 10:16:38;;;;;;;32.57;19.77;;;;;;;13.94;100.00;95053.41;5012124;28;20252;-63
2022/11/08 10:19:10;;;;;;;24.77;18.90;;;;;;;14.00;100.00;95083.50;5011738;28;20227;-63
2022/11/08 10:21:35;;;;;;;33.50;20.37;;;;;;;13.90;100.00;95057.19;5011823;28;20217;-65
2022/11/08 10:24:06;;;;;;;26.77;18.43;;;;;;;13.86;100.00;95055.84;5012000;28;20207;-62
2022/11/08 10:26:41;;;;;;;31.17;19.17;;;;;;;14.04;100.00;95082.28;5011854;28;20190;-63
2022/11/08 10:29:28;;;;;;;31.30;19.63;;;;;;;14.19;100.00;95080.91;5011789;28;20685;-63
2022/11/08 10:32:20;;;;;;;28.02;17.65;;;;;;;14.51;100.00;95101.78;5011927;28;20190;-62
2022/11/08 10:34:48;;;;;;;30.40;20.20;;;;;;;14.39;100.00;95077.34;5010343;28;20222;-62
2022/11/08 10:37:16;;;;;;;32.10;20.30;;;;;;;14.27;100.00;95060.53;5011050;28;20187;-66
2022/11/08 10:40:03;;;;;;;30.87;20.33;;;;;;;14.39;100.00;95054.31;5011950;28;20281;-62
2022/11/08 10:42:37;;;;;;;33.00;20.02;;;;;;;14.42;100.00;95066.84;5011359;28;20232;-62
2022/11/08 10:45:03;;;;;;;37.03;20.70;;;;;;;14.36;100.00;95079.38;5028563;23;20252;-62
2022/11/08 10:47:31;;;;;;;31.38;20.27;;;;;;;14.49;100.00;95065.28;5029993;28;20244;-63
2022/11/08 10:49:57;;;;;;;31.47;21.67;;;;;;;14.63;100.00;95085.28;5030976;28;20260;-62
2022/11/08 10:52:43;;;;;;;31.40;21.17;;;;;;;14.54;100.00;95075.09;5031109;28;20657;-62
2022/11/08 10:55:22;;;;;;;32.43;20.77;;;;;;;14.50;100.00;95071.22;5031606;28;20202;-63
2022/11/08 10:57:48;;;;;;;35.00;20.40;;;;;;;14.52;100.00;95069.34;5031158;28;20197;-61
2022/11/08 11:00:19;;;;;;;29.98;20.42;;;;;;;14.56;100.00;95079.16;5031270;28;20681;-65
2022/11/08 11:02:51;;;;;;;31.42;21.08;;;;;;;14.62;100.00;95073.44;5030988;28;20233;-63
2022/11/08 11:05:16;;;;;;;29.52;19.60;;;;;;;14.78;100.00;95083.03;5031199;28;20233;-62
2022/11/08 11:07:46;;;;;;;32.80;20.02;;;;;;;14.57;100.00;95070.50;5030869;28;20182;-62
2022/11/08 11:10:22;;;;;;;33.40;21.03;;;;;;;14.59;100.00;95048.13;5030808;28;20272;-62
2022/11/08 11:13:09;;;;;;;32.63;20.10;;;;;;;14.81;100.00;95069.94;5013068;28;20220;-62
2022/11/08 11:15:47;;;;;;;28.92;18.83;;;;;;;14.98;100.00;95126.28;5012369;28;20234;-63
2022/11/08 11:18:32;;;;;;;25.30;17.70;;;;;;;14.96;100.00;95129.94;5030855;28;20668;-63
2022/11/08 11:21:17;;;;;;;32.63;18.95;;;;;;;15.18;100.00;95118.47;5030650;28;20216;-63
2022/11/08 11:23:45;;;;;;;27.20;18.08;;;;;;;15.25;100.00;95125.41;5030567;28;20645;-63
2022/11/08 11:26:33;;;;;;;24.50;17.70;;;;;;;15.22;100.00;95124.91;5030735;28;20194;-63
2022/11/08 11:29:04;;;;;;;28.48;17.70;;;;;;;15.24;100.00;95123.81;5012739;28;20304;-63
2022/11/08 11:31:31;;;;;;;24.88;18.00;;;;;;;15.21;100.00;95118.97;5030781;28;20182;-64
2022/11/08 11:33:57;;;;;;;30.27;19.58;;;;;;;15.25;100.00;95114.38;5030207;28;20213;-62